Time;durP1;ratioP1;P1;durP2;ratioP2;P2;SDS_P1;SDS_P2;PMS_P1;PMS_P2;Temp;Humidity;BMP_temperature;BMP_pressure;BME280_temperature;BME280_humidity;BME280_pressure;Samples;Min_cycle;Max_cycle;Signal;HPM_P1;HPM_P2
2022/09/19 00:01:24;;;;;;;8.13;1.27;;;10.50;99.90;;;;;;5155146;27;20056;-73
2022/09/19 00:04:30;;;;;;;8.60;2.08;;;10.50;99.90;;;;;;5154920;27;20487;-73
2022/09/19 00:06:56;;;;;;;10.50;2.00;;;10.60;99.90;;;;;;5050842;28;20045;-73
2022/09/19 00:09:27;;;;;;;9.70;1.70;;;10.70;99.90;;;;;;5136950;27;20062;-73
2022/09/19 00:11:55;;;;;;;6.18;1.40;;;10.60;99.90;;;;;;5154672;27;20479;-73
2022/09/19 00:14:24;;;;;;;7.75;2.17;;;10.60;99.90;;;;;;5154984;27;20043;-73
2022/09/19 00:16:55;;;;;;;5.80;1.35;;;10.60;99.90;;;;;;5154832;27;20043;-73
2022/09/19 00:19:21;;;;;;;11.48;2.03;;;10.70;99.90;;;;;;5154954;27;20474;-73
2022/09/19 00:21:48;;;;;;;13.15;2.03;;;10.60;99.90;;;;;;5155345;27;20042;-73
2022/09/19 00:27:03;;;;;;;7.93;1.73;;;10.70;99.90;;;;;;5154804;27;20050;-73
2022/09/19 00:29:32;;;;;;;7.30;1.52;;;10.70;99.90;;;;;;5155815;27;20046;-73
2022/09/19 00:31:58;;;;;;;6.90;1.63;;;10.70;99.90;;;;;;5158637;27;20046;-73
2022/09/19 00:34:25;;;;;;;7.03;1.83;;;10.70;99.90;;;;;;5158961;27;20083;-73
2022/09/19 00:36:51;;;;;;;5.10;1.25;;;10.70;99.90;;;;;;5158753;27;20046;-73
2022/09/19 00:39:18;;;;;;;7.35;1.40;;;10.70;99.90;;;;;;5158558;27;20125;-73
2022/09/19 00:41:45;;;;;;;7.30;1.15;;;10.70;99.90;;;;;;5158557;27;20042;-73
2022/09/19 00:44:23;;;;;;;5.05;1.20;;;10.80;99.90;;;;;;5158520;27;20062;-73
2022/09/19 00:46:51;;;;;;;;;;;10.80;99.90;;;;;;5159265;27;20394;-74
2022/09/19 00:49:18;;;;;;;6.45;1.50;;;10.80;99.90;;;;;;5158140;27;20311;-73
2022/09/19 00:51:49;;;;;;;8.10;1.48;;;10.80;99.90;;;;;;5158343;27;20047;-73
2022/09/19 00:54:20;;;;;;;10.48;1.58;;;10.80;99.90;;;;;;5158407;27;20439;-73
2022/09/19 00:56:51;;;;;;;5.40;1.45;;;10.70;99.90;;;;;;5158086;27;20095;-73
2022/09/19 00:59:18;;;;;;;9.20;2.08;;;10.70;99.90;;;;;;5158225;27;20137;-73
2022/09/19 01:01:44;;;;;;;5.32;1.45;;;10.70;99.90;;;;;;5158099;27;20121;-72
2022/09/19 01:04:18;;;;;;;14.98;1.83;;;10.70;99.90;;;;;;5158059;27;20573;-73
2022/09/19 01:07:00;;;;;;;6.55;1.38;;;10.70;99.90;;;;;;5157954;27;20520;-73
2022/09/19 01:09:44;;;;;;;5.80;1.38;;;10.70;99.90;;;;;;5158388;27;20055;-74
2022/09/19 01:12:33;;;;;;;5.63;1.50;;;10.80;99.90;;;;;;5157931;27;20050;-73
2022/09/19 01:15:09;;;;;;;4.78;1.20;;;10.70;99.90;;;;;;5157726;27;20134;-73
2022/09/19 01:17:42;;;;;;;5.57;1.15;;;10.70;99.90;;;;;;5157787;27;20126;-73
2022/09/19 01:20:26;;;;;;;7.07;1.75;;;10.70;99.90;;;;;;5139845;27;20394;-73
2022/09/19 01:23:12;;;;;;;10.52;1.55;;;10.70;99.90;;;;;;5157674;27;20042;-74
2022/09/19 01:25:49;;;;;;;9.32;1.40;;;10.70;99.90;;;;;;5157687;27;20126;-73
2022/09/19 01:28:27;;;;;;;3.60;1.15;;;10.70;99.90;;;;;;5158037;27;20089;-73
2022/09/19 01:31:18;;;;;;;4.03;1.13;;;10.70;99.90;;;;;;5157605;27;20039;-73
2022/09/19 01:34:02;;;;;;;6.28;1.30;;;10.70;99.90;;;;;;5157666;27;20142;-73
2022/09/19 01:36:36;;;;;;;5.72;1.58;;;10.70;99.90;;;;;;5157287;27;20039;-73
2022/09/19 01:39:05;;;;;;;8.32;1.52;;;10.70;99.90;;;;;;5157277;27;20043;-73
2022/09/19 01:41:31;;;;;;;12.10;1.67;;;10.70;99.90;;;;;;5155926;27;20401;-73
2022/09/19 01:44:03;;;;;;;6.18;1.40;;;10.90;99.90;;;;;;5138621;27;20043;-73
2022/09/19 01:46:52;;;;;;;11.50;2.15;;;10.80;99.90;;;;;;5157233;27;20470;-73
2022/09/19 01:49:47;;;;;;;13.43;2.03;;;10.80;99.90;;;;;;5157623;27;20053;-73
2022/09/19 01:52:48;;;;;;;12.32;1.95;;;10.80;99.90;;;;;;5129882;27;20137;-73
2022/09/19 01:55:26;;;;;;;11.85;2.13;;;10.80;99.90;;;;;;5156850;27;20490;-73
2022/09/19 01:58:25;;;;;;;9.65;1.73;;;10.80;99.90;;;;;;5157210;27;20047;-73
2022/09/19 02:01:02;;;;;;;7.55;1.35;;;10.80;99.90;;;;;;5157149;27;20068;-73
2022/09/19 02:03:49;;;;;;;8.55;1.65;;;11.10;99.90;;;;;;5156609;27;20050;-73
2022/09/19 02:06:25;;;;;;;7.88;1.83;;;10.80;99.90;;;;;;5157232;27;20083;-74
2022/09/19 02:09:03;;;;;;;9.80;1.60;;;10.70;99.90;;;;;;5156712;27;20134;-73
2022/09/19 02:11:29;;;;;;;6.85;1.38;;;10.70;99.90;;;;;;5156759;27;20100;-73
2022/09/19 02:14:10;;;;;;;12.93;1.90;;;10.70;99.90;;;;;;5156633;27;20413;-73
2022/09/19 02:17:06;;;;;;;9.82;1.90;;;10.70;99.90;;;;;;5157222;27;20377;-73
2022/09/19 02:19:37;;;;;;;13.25;2.10;;;10.70;99.90;;;;;;5156712;27;20371;-73
2022/09/19 02:22:08;;;;;;;8.38;1.67;;;10.70;99.90;;;;;;5156514;27;20054;-73
2022/09/19 02:24:37;;;;;;;11.30;2.13;;;10.90;99.90;;;;;;5156454;27;20045;-74
2022/09/19 02:27:17;;;;;;;8.70;1.95;;;10.70;99.90;;;;;;5156643;27;20542;-74
2022/09/19 02:29:46;;;;;;;6.97;1.88;;;10.70;99.90;;;;;;5156410;27;20050;-74
2022/09/19 02:32:12;;;;;;;11.13;1.80;;;10.70;99.90;;;;;;5156225;27;20056;-73
2022/09/19 02:34:38;;;;;;;7.28;1.50;;;10.70;99.90;;;;;;5156292;27;20072;-73
2022/09/19 02:37:56;;;;;;;15.00;1.97;;;10.60;99.90;;;;;;5156121;27;20138;-73
2022/09/19 02:40:32;;;;;;;8.35;1.63;;;10.60;99.90;;;;;;5115389;27;20055;-73
2022/09/19 02:43:37;;;;;;;9.45;1.40;;;10.60;99.90;;;;;;5156017;27;20038;-73
2022/09/19 02:46:16;;;;;;;12.05;1.88;;;10.60;99.90;;;;;;5104506;27;20069;-73
2022/09/19 02:48:55;;;;;;;13.02;1.90;;;10.60;99.90;;;;;;5156056;27;20481;-73
2022/09/19 02:51:36;;;;;;;9.30;2.00;;;10.60;99.90;;;;;;5156022;27;20047;-73
2022/09/19 02:54:10;;;;;;;11.18;1.95;;;10.80;99.90;;;;;;5156466;27;20082;-73
2022/09/19 02:56:40;;;;;;;10.60;2.05;;;10.70;99.90;;;;;;5155844;27;20045;-73
2022/09/19 02:59:16;;;;;;;13.40;2.17;;;10.70;99.90;;;;;;5155848;27;20078;-73
2022/09/19 03:01:47;;;;;;;19.23;2.67;;;10.70;99.90;;;;;;5155808;27;20453;-73
2022/09/19 03:04:18;;;;;;;9.50;1.60;;;10.70;99.90;;;;;;5155759;27;20099;-73
2022/09/19 03:07:00;;;;;;;10.88;1.92;;;10.80;99.90;;;;;;5156194;27;20050;-74
2022/09/19 03:09:29;;;;;;;11.65;1.77;;;10.70;99.90;;;;;;5156130;27;20064;-73
2022/09/19 03:12:03;;;;;;;10.77;1.80;;;10.80;99.90;;;;;;5155789;27;20054;-74
2022/09/19 03:14:32;;;;;;;12.05;3.58;;;10.80;99.90;;;;;;5155688;27;20070;-73
2022/09/19 03:17:00;;;;;;;9.88;1.65;;;11.00;99.90;;;;;;5155413;27;20407;-73
2022/09/19 03:19:27;;;;;;;18.63;2.45;;;10.80;99.90;;;;;;5155487;27;20053;-73
2022/09/19 03:21:54;;;;;;;10.75;2.22;;;10.80;99.90;;;;;;5155464;27;20045;-73
2022/09/19 03:24:22;;;;;;;15.27;2.05;;;10.80;99.90;;;;;;5155486;27;20058;-73
2022/09/19 03:26:48;;;;;;;12.50;2.15;;;10.80;99.90;;;;;;5155469;27;20043;-73
2022/09/19 03:29:15;;;;;;;9.80;2.05;;;10.90;99.90;;;;;;5155381;27;20047;-73
2022/09/19 03:31:45;;;;;;;12.23;2.47;;;10.90;99.90;;;;;;5155650;27;20394;-73
2022/09/19 03:34:12;;;;;;;13.00;2.33;;;10.90;99.90;;;;;;5155797;27;20401;-74
2022/09/19 03:36:37;;;;;;;;;;;11.00;99.90;;;;;;5155694;27;20050;-74
2022/09/19 03:39:03;;;;;;;7.97;1.95;;;11.00;99.90;;;;;;5155307;27;19919;-73
2022/09/19 03:41:30;;;;;;;10.18;1.85;;;11.00;99.90;;;;;;5155465;27;20042;-74
2022/09/19 03:44:00;;;;;;;;;;;11.00;99.90;;;;;;5155622;27;20119;-74
2022/09/19 03:46:26;;;;;;;11.15;2.38;;;11.00;99.90;;;;;;5155681;27;20102;-74
2022/09/19 03:48:52;;;;;;;7.53;1.77;;;11.00;99.90;;;;;;5155219;27;20047;-73
2022/09/19 03:51:18;;;;;;;7.20;1.65;;;11.00;99.90;;;;;;5155135;27;20054;-73
2022/09/19 03:53:45;;;;;;;9.17;2.00;;;11.00;99.90;;;;;;5155170;27;20111;-74
2022/09/19 03:56:15;;;;;;;8.13;1.63;;;11.00;99.90;;;;;;5155020;27;20047;-73
2022/09/19 03:58:41;;;;;;;11.80;1.77;;;10.90;99.90;;;;;;5155100;27;20446;-74
2022/09/19 04:01:08;;;;;;;9.50;2.05;;;10.90;99.90;;;;;;5155107;27;20521;-73
2022/09/19 04:03:37;;;;;;;7.80;1.65;;;11.00;99.90;;;;;;5155039;27;20042;-73
2022/09/19 04:06:04;;;;;;;12.68;2.15;;;10.90;99.90;;;;;;5158777;27;20046;-74
2022/09/19 04:08:30;;;;;;;11.18;2.38;;;10.80;99.90;;;;;;5159126;27;20122;-74
2022/09/19 04:10:55;;;;;;;16.85;1.88;;;10.80;99.90;;;;;;5159082;27;20038;-73
2022/09/19 04:13:21;;;;;;;6.88;1.92;;;10.80;99.90;;;;;;5158970;27;20129;-74
2022/09/19 04:15:47;;;;;;;14.32;2.55;;;10.70;99.90;;;;;;5159218;27;20087;-74
2022/09/19 04:18:13;;;;;;;7.22;1.50;;;10.80;99.90;;;;;;5158897;27;20046;-73
2022/09/19 04:20:39;;;;;;;10.88;2.55;;;10.70;99.90;;;;;;5158758;27;20038;-73
2022/09/19 04:23:05;;;;;;;10.25;1.92;;;10.70;99.90;;;;;;5158849;27;20494;-74
2022/09/19 04:25:35;;;;;;;11.30;1.80;;;10.70;99.90;;;;;;5140343;27;20374;-74
2022/09/19 04:28:07;;;;;;;10.10;1.73;;;10.70;99.90;;;;;;5158746;27;20042;-73
2022/09/19 04:30:35;;;;;;;11.95;2.13;;;10.70;99.90;;;;;;5158459;27;20043;-74
2022/09/19 04:33:02;;;;;;;12.00;1.85;;;10.70;99.90;;;;;;5159072;27;20059;-73
2022/09/19 04:35:35;;;;;;;9.95;1.85;;;10.70;99.90;;;;;;5158542;27;20117;-74
2022/09/19 04:38:08;;;;;;;11.85;2.03;;;10.80;99.90;;;;;;5158714;27;20434;-73
2022/09/19 04:40:45;;;;;;;11.30;2.15;;;10.70;99.90;;;;;;5140257;27;20082;-73
2022/09/19 04:43:13;;;;;;;11.77;1.90;;;10.70;99.90;;;;;;5158573;27;20046;-73
2022/09/19 04:45:42;;;;;;;9.98;1.50;;;11.00;99.90;;;;;;5158954;27;20045;-73
2022/09/19 04:48:08;;;;;;;9.38;1.63;;;10.80;99.90;;;;;;5158320;27;20050;-74
2022/09/19 04:50:35;;;;;;;6.65;1.52;;;10.70;99.90;;;;;;5158409;27;20039;-74
2022/09/19 04:53:01;;;;;;;8.88;1.90;;;10.60;99.90;;;;;;5158158;27;20047;-73
2022/09/19 04:55:27;;;;;;;7.97;1.67;;;10.70;99.90;;;;;;5158165;27;20123;-74
2022/09/19 04:57:54;;;;;;;7.90;1.88;;;10.80;99.90;;;;;;5158204;27;20468;-74
2022/09/19 05:00:36;;;;;;;;;;;10.60;99.90;;;;;;5158490;27;20050;-74
2022/09/19 05:03:14;;;;;;;6.95;1.67;;;10.60;99.90;;;;;;5158121;27;19967;-73
2022/09/19 05:05:44;;;;;;;8.70;1.90;;;10.60;99.90;;;;;;5158573;27;20070;-73
2022/09/19 05:08:12;;;;;;;9.05;1.77;;;10.30;99.90;;;;;;5157879;27;20039;-73
2022/09/19 05:10:38;;;;;;;8.63;1.90;;;10.60;99.90;;;;;;5157598;27;20039;-74
2022/09/19 05:13:03;;;;;;;14.98;2.08;;;10.60;99.90;;;;;;5158111;27;20046;-75
2022/09/19 05:15:29;;;;;;;10.45;2.75;;;10.60;99.90;;;;;;5157587;27;20471;-74
2022/09/19 05:17:55;;;;;;;12.80;2.00;;;10.60;99.90;;;;;;5157735;27;20039;-74
2022/09/19 05:20:25;;;;;;;8.02;1.80;;;10.60;99.90;;;;;;5139203;27;20053;-74
2022/09/19 05:23:03;;;;;;;5.20;1.83;;;10.70;99.90;;;;;;5157681;27;20087;-74
2022/09/19 05:25:34;;;;;;;12.60;2.20;;;10.70;99.90;;;;;;5158108;27;20078;-75
2022/09/19 05:28:06;;;;;;;12.57;1.95;;;10.70;99.90;;;;;;5157520;27;20489;-74
2022/09/19 05:30:32;;;;;;;11.10;2.05;;;10.70;99.90;;;;;;5139854;27;20051;-74
2022/09/19 05:32:59;;;;;;;12.38;2.95;;;10.80;99.90;;;;;;5157527;27;20078;-75
2022/09/19 05:35:25;;;;;;;;;;;10.80;99.90;;;;;;5158305;27;20039;-75
2022/09/19 05:37:51;;;;;;;13.63;1.75;;;10.90;99.90;;;;;;5157393;27;19919;-75
2022/09/19 05:40:18;;;;;;;16.85;2.30;;;10.90;99.90;;;;;;5157205;27;20125;-74
2022/09/19 05:42:46;;;;;;;11.88;1.88;;;10.90;99.90;;;;;;5157056;27;20047;-74
2022/09/19 05:45:14;;;;;;;7.20;1.60;;;10.90;99.90;;;;;;5157204;27;20064;-74
2022/09/19 05:47:40;;;;;;;12.05;2.08;;;11.00;99.90;;;;;;5157084;27;20051;-75
2022/09/19 05:50:10;;;;;;;15.30;2.60;;;11.00;99.90;;;;;;5157072;27;20050;-74
2022/09/19 05:55:22;;;;;;;10.38;2.08;;;11.20;99.90;;;;;;5138622;27;20472;-74
2022/09/19 05:57:58;;;;;;;12.38;2.45;;;11.00;99.90;;;;;;5156971;27;20122;-73
2022/09/19 06:00:25;;;;;;;10.73;2.03;;;11.10;99.90;;;;;;5139224;27;20049;-74
2022/09/19 06:02:57;;;;;;;11.55;2.53;;;11.10;99.90;;;;;;5156679;27;20505;-76
2022/09/19 06:05:24;;;;;;;15.57;2.28;;;11.10;99.90;;;;;;5156803;27;20042;-74
2022/09/19 06:07:51;;;;;;;;;;;11.10;99.90;;;;;;5121802;27;20082;-74
2022/09/19 06:10:17;;;;;;;9.57;2.00;;;11.10;99.90;;;;;;5156607;27;19919;-76
2022/09/19 06:12:43;;;;;;;15.73;2.63;;;11.10;99.90;;;;;;5156627;27;20126;-76
2022/09/19 06:15:09;;;;;;;11.43;2.58;;;11.10;99.90;;;;;;5156770;27;21985;-76
2022/09/19 06:17:35;;;;;;;6.60;1.87;;;11.10;99.90;;;;;;5156453;27;20035;-75
2022/09/19 06:20:01;;;;;;;12.85;3.17;;;11.10;99.90;;;;;;5156511;27;20053;-73
2022/09/19 06:22:26;;;;;;;11.65;2.05;;;11.10;99.90;;;;;;5156555;27;20389;-75
2022/09/19 06:24:52;;;;;;;14.82;2.47;;;11.10;99.90;;;;;;5137956;27;20050;-75
2022/09/19 06:27:18;;;;;;;11.15;2.28;;;11.10;99.90;;;;;;5155878;27;20081;-74
2022/09/19 06:29:43;;;;;;;9.32;2.05;;;11.10;99.90;;;;;;5137873;27;20042;-76
2022/09/19 06:32:09;;;;;;;9.85;2.40;;;11.10;99.90;;;;;;5156622;27;20043;-75
2022/09/19 06:34:35;;;;;;;10.55;3.03;;;11.10;99.90;;;;;;5156309;27;20053;-74
2022/09/19 06:37:00;;;;;;;9.95;2.13;;;11.30;99.90;;;;;;5156104;27;20034;-75
2022/09/19 06:39:26;;;;;;;7.38;2.03;;;11.20;99.90;;;;;;5156111;27;20039;-75
2022/09/19 06:41:51;;;;;;;11.48;1.83;;;11.40;99.90;;;;;;5156082;27;20045;-73
2022/09/19 06:44:17;;;;;;;17.00;3.03;;;11.20;99.90;;;;;;5156149;27;20138;-73
2022/09/19 06:46:43;;;;;;;10.38;2.05;;;11.30;99.90;;;;;;5156563;27;20050;-74
2022/09/19 06:49:09;;;;;;;10.15;1.83;;;11.30;99.90;;;;;;5156289;27;20042;-74
2022/09/19 06:51:35;;;;;;;15.02;2.40;;;11.40;99.90;;;;;;5155975;27;20072;-72
2022/09/19 06:54:01;;;;;;;12.88;1.95;;;11.50;99.90;;;;;;5155922;27;20042;-73
2022/09/19 06:56:27;;;;;;;9.07;2.42;;;11.70;99.90;;;;;;5155785;27;20043;-72
2022/09/19 06:58:55;;;;;;;7.47;1.55;;;11.80;99.90;;;;;;5155845;27;20050;-74
2022/09/19 07:01:22;;;;;;;8.32;1.92;;;11.80;99.90;;;;;;5155793;27;20038;-72
2022/09/19 07:03:48;;;;;;;11.85;2.17;;;11.90;99.90;;;;;;5155738;27;20069;-73
2022/09/19 07:06:13;;;;;;;7.53;1.67;;;11.90;99.90;;;;;;5155684;27;20121;-75
2022/09/19 07:08:39;;;;;;;8.57;1.38;;;11.90;99.90;;;;;;5156037;27;20117;-73
2022/09/19 07:11:05;;;;;;;12.25;1.83;;;11.80;99.90;;;;;;5155631;27;20051;-72
2022/09/19 07:13:30;;;;;;;11.15;2.38;;;11.80;99.90;;;;;;5155996;27;20053;-71
2022/09/19 07:16:03;;;;;;;11.90;2.05;;;11.80;99.90;;;;;;5155402;27;20490;-72
2022/09/19 07:18:29;;;;;;;10.88;2.45;;;11.80;99.90;;;;;;5155391;27;20046;-73
2022/09/19 07:20:58;;;;;;;5.40;1.33;;;11.90;99.90;;;;;;5155338;27;20502;-72
2022/09/19 07:23:23;;;;;;;9.90;2.05;;;12.00;99.90;;;;;;5155371;27;20098;-73
2022/09/19 07:25:49;;;;;;;10.27;2.08;;;12.20;99.90;;;;;;5155437;27;20039;-73
2022/09/19 07:28:17;;;;;;;9.40;2.00;;;12.20;99.90;;;;;;5155465;27;20045;-73
2022/09/19 07:30:45;;;;;;;14.40;2.25;;;12.40;99.90;;;;;;5155737;27;20397;-73
2022/09/19 07:33:13;;;;;;;9.95;1.92;;;12.50;99.90;;;;;;5155355;27;20050;-72
2022/09/19 07:35:41;;;;;;;11.20;2.17;;;12.60;99.90;;;;;;5155265;27;20039;-75
2022/09/19 07:38:09;;;;;;;11.05;2.28;;;12.70;99.90;;;;;;5155249;27;20394;-75
2022/09/19 07:40:35;;;;;;;11.45;2.50;;;12.70;99.90;;;;;;5157341;27;20039;-75
2022/09/19 07:43:02;;;;;;;11.15;2.15;;;12.80;99.90;;;;;;5157935;27;20513;-77
2022/09/19 07:45:31;;;;;;;12.43;2.58;;;12.70;99.90;;;;;;5159663;27;20052;-77
2022/09/19 07:47:56;;;;;;;10.35;2.15;;;12.80;99.90;;;;;;5159517;27;20056;-74
2022/09/19 07:50:22;;;;;;;11.52;2.25;;;12.80;99.90;;;;;;5159598;27;20047;-74
2022/09/19 07:52:57;;;;;;;9.82;2.33;;;12.70;99.90;;;;;;5159439;27;20042;-75
2022/09/19 07:55:24;;;;;;;7.90;1.83;;;12.70;99.90;;;;;;5159605;27;20045;-76
2022/09/19 07:57:55;;;;;;;13.65;2.00;;;12.70;99.90;;;;;;5159263;27;20045;-76
2022/09/19 08:00:22;;;;;;;9.90;1.85;;;12.70;99.90;;;;;;5159365;27;20038;-77
2022/09/19 08:03:03;;;;;;;11.95;2.38;;;12.80;99.90;;;;;;5141100;27;20049;-76
2022/09/19 08:05:34;;;;;;;8.88;2.38;;;12.80;99.90;;;;;;5158690;27;20076;-78
2022/09/19 08:07:59;;;;;;;6.68;2.28;;;12.90;99.90;;;;;;5159155;27;20039;-77
2022/09/19 08:10:25;;;;;;;9.85;2.08;;;13.00;99.90;;;;;;5159162;27;20043;-77
2022/09/19 08:12:51;;;;;;;10.30;2.15;;;13.10;99.90;;;;;;5159053;27;20044;-78
2022/09/19 08:15:18;;;;;;;8.43;2.40;;;13.40;99.90;;;;;;5140882;27;20465;-76
2022/09/19 08:18:01;;;;;;;9.90;1.83;;;13.30;99.90;;;;;;5144031;27;20036;-75
2022/09/19 08:20:32;;;;;;;8.88;1.75;;;13.40;99.90;;;;;;5140696;27;20052;-76
2022/09/19 08:23:00;;;;;;;8.18;1.80;;;13.50;99.90;;;;;;5158909;27;20050;-74
2022/09/19 08:25:27;;;;;;;11.30;2.22;;;13.50;99.90;;;;;;5158648;27;20046;-76
2022/09/19 08:27:55;;;;;;;8.80;2.08;;;13.60;99.90;;;;;;5158789;27;20039;-76
2022/09/19 08:30:21;;;;;;;8.88;2.42;;;13.70;99.90;;;;;;5140210;27;20047;-75
2022/09/19 08:32:49;;;;;;;7.70;2.08;;;13.90;99.90;;;;;;5158540;27;20090;-74
2022/09/19 08:35:19;;;;;;;11.43;2.65;;;14.10;99.90;;;;;;5161817;27;20420;-73
2022/09/19 08:37:46;;;;;;;7.47;1.83;;;14.20;99.90;;;;;;5160130;27;20462;-74
2022/09/19 08:40:28;;;;;;;10.18;1.85;;;14.20;99.90;;;;;;5142971;27;20047;-76
2022/09/19 08:43:20;;;;;;;10.80;2.35;;;14.20;99.90;;;;;;5139691;27;20474;-79
2022/09/19 08:46:03;;;;;;;10.50;1.80;;;14.20;99.90;;;;;;5158270;27;20488;-74
2022/09/19 08:49:08;;;;;;;9.40;2.30;;;14.10;99.90;;;;;;5158782;27;20042;-75
2022/09/19 08:51:48;;;;;;;9.13;2.47;;;14.10;99.90;;;;;;5100872;27;20058;-75
2022/09/19 08:54:18;;;;;;;14.65;2.65;;;14.00;99.90;;;;;;5158397;27;20078;-75
2022/09/19 08:56:44;;;;;;;12.50;2.58;;;14.00;99.90;;;;;;5158508;27;20039;-74
2022/09/19 08:59:15;;;;;;;8.30;2.13;;;14.10;99.90;;;;;;5158808;27;20061;-75
2022/09/19 09:01:41;;;;;;;11.25;2.55;;;14.20;99.90;;;;;;5158263;27;20042;-74
2022/09/19 09:04:30;;;;;;;12.10;2.87;;;14.20;99.90;;;;;;5158469;27;20039;-73
2022/09/19 09:07:08;;;;;;;7.57;1.98;;;14.40;99.90;;;;;;5140019;27;20502;-75
2022/09/19 09:09:34;;;;;;;9.63;2.30;;;14.40;99.90;;;;;;5157880;27;20049;-78
2022/09/19 09:12:14;;;;;;;8.63;2.20;;;14.50;99.90;;;;;;5139679;27;20046;-77
2022/09/19 09:15:02;;;;;;;9.95;2.15;;;14.60;99.90;;;;;;5139582;27;20083;-76
2022/09/19 09:17:49;;;;;;;12.65;3.08;;;14.70;99.90;;;;;;5157962;27;20074;-76
2022/09/19 09:20:41;;;;;;;9.48;2.47;;;14.80;99.90;;;;;;5157804;27;20103;-73
2022/09/19 09:23:14;;;;;;;11.70;2.47;;;14.90;99.90;;;;;;5157643;27;20073;-73
2022/09/19 09:25:54;;;;;;;7.80;2.33;;;15.10;99.90;;;;;;5157510;27;20043;-73
2022/09/19 09:28:41;;;;;;;8.73;2.30;;;15.10;99.90;;;;;;5157691;27;20035;-73
2022/09/19 09:31:29;;;;;;;10.60;2.35;;;15.20;99.90;;;;;;5157435;27;20049;-73
2022/09/19 09:34:03;;;;;;;14.77;2.80;;;15.20;99.90;;;;;;5157562;27;20046;-73
2022/09/19 09:36:48;;;;;;;11.68;2.90;;;15.20;99.90;;;;;;5139084;27;20054;-73
2022/09/19 09:39:21;;;;;;;11.25;2.83;;;15.40;99.90;;;;;;5157301;27;20046;-73
2022/09/19 09:42:14;;;;;;;12.07;2.05;;;15.40;99.90;;;;;;5157798;27;20103;-73
2022/09/19 09:44:58;;;;;;;11.52;2.72;;;15.70;99.90;;;;;;5152806;27;20135;-74
2022/09/19 09:47:43;;;;;;;8.60;2.10;;;15.80;99.90;;;;;;5155051;27;20055;-73
2022/09/19 09:50:34;;;;;;;11.45;2.58;;;15.90;99.90;;;;;;5145255;27;20035;-73
2022/09/19 09:53:27;;;;;;;8.32;2.13;;;16.00;99.90;;;;;;5136309;27;20051;-73
2022/09/19 09:56:16;;;;;;;7.63;2.20;;;16.10;99.90;;;;;;5135751;27;20506;-73
2022/09/19 09:58:59;;;;;;;10.65;2.53;;;16.20;99.90;;;;;;5136165;27;20051;-73
2022/09/19 10:04:41;;;;;;;9.00;2.17;;;16.30;99.90;;;;;;5135834;27;20050;-72
2022/09/19 10:07:14;;;;;;;8.93;2.22;;;16.30;99.90;;;;;;5135892;27;20513;-72
2022/09/19 10:09:45;;;;;;;15.90;2.40;;;16.40;99.90;;;;;;5136159;27;20434;-71
2022/09/19 10:12:29;;;;;;;10.75;2.47;;;16.40;99.90;;;;;;5135875;27;20118;-71
2022/09/19 10:15:00;;;;;;;8.25;1.67;;;16.50;99.90;;;;;;5135158;27;20046;-72
2022/09/19 10:17:33;;;;;;;8.95;2.00;;;16.50;99.90;;;;;;5135791;27;20122;-72
2022/09/19 10:20:03;;;;;;;8.25;1.92;;;16.30;99.90;;;;;;5117559;27;20039;-72
2022/09/19 10:22:29;;;;;;;9.63;2.67;;;16.30;99.90;;;;;;5135482;27;20042;-72
2022/09/19 10:24:59;;;;;;;7.53;2.15;;;16.30;99.90;;;;;;5135563;27;20047;-71
2022/09/19 10:27:31;;;;;;;7.32;2.00;;;16.20;99.90;;;;;;5135080;27;20536;-72
2022/09/19 10:29:58;;;;;;;8.32;2.35;;;16.20;99.90;;;;;;5135359;27;20039;-72
2022/09/19 10:32:34;;;;;;;8.07;2.38;;;16.00;99.90;;;;;;5135113;27;20514;-72
2022/09/19 10:35:00;;;;;;;12.13;2.40;;;16.20;99.90;;;;;;5135121;27;20435;-72
2022/09/19 10:37:27;;;;;;;11.82;2.88;;;16.40;99.90;;;;;;5135395;27;20126;-73
2022/09/19 10:40:04;;;;;;;12.05;2.47;;;16.50;99.90;;;;;;5135049;27;20039;-75
2022/09/19 10:42:37;;;;;;;11.17;2.70;;;16.60;99.90;;;;;;5135306;27;20043;-76
2022/09/19 10:45:25;;;;;;;10.57;2.70;;;16.80;99.90;;;;;;5135127;27;20047;-73
2022/09/19 10:47:54;;;;;;;9.77;2.10;;;17.00;99.90;;;;;;5135170;27;20057;-75
2022/09/19 10:50:20;;;;;;;7.43;2.28;;;17.30;99.90;;;;;;5134799;27;20487;-72
2022/09/19 10:52:49;;;;;;;5.43;1.60;;;17.60;99.90;;;;;;5134998;27;20516;-73
2022/09/19 10:55:20;;;;;;;6.57;1.75;;;17.60;99.90;;;;;;5134971;27;20061;-72
2022/09/19 10:57:59;;;;;;;7.78;2.03;;;17.40;99.90;;;;;;5134615;27;20507;-75
2022/09/19 11:00:26;;;;;;;5.95;1.40;;;17.20;99.90;;;;;;5135017;27;20143;-78
2022/09/19 11:03:16;;;;;;;4.93;1.20;;;17.00;99.90;;;;;;5134836;27;20083;-76
2022/09/19 11:05:42;;;;;;;4.50;1.20;;;16.50;99.90;;;;;;5116853;27;20091;-73
2022/09/19 11:08:25;;;;;;;4.87;1.13;;;16.10;99.90;;;;;;5134862;27;20125;-73
2022/09/19 11:10:51;;;;;;;5.40;1.30;;;15.80;99.90;;;;;;5134750;27;20043;-73
2022/09/19 11:13:25;;;;;;;3.33;1.00;;;15.50;99.90;;;;;;5134143;27;20599;-74
2022/09/19 11:16:05;;;;;;;3.83;1.55;;;15.50;99.90;;;;;;5134715;27;20069;-73
2022/09/19 11:19:01;;;;;;;6.43;1.55;;;15.20;99.90;;;;;;5134912;27;20095;-74
2022/09/19 11:21:49;;;;;;;5.85;1.33;;;15.20;99.90;;;;;;5116296;28;20083;-73
2022/09/19 11:24:43;;;;;;;3.47;0.90;;;15.40;99.90;;;;;;5134606;27;20047;-79
2022/09/19 11:27:21;;;;;;;4.72;1.27;;;15.60;99.90;;;;;;5120404;27;20051;-75
2022/09/19 11:30:00;;;;;;;4.60;1.35;;;15.80;99.90;;;;;;5134541;27;20461;-74
2022/09/19 11:32:32;;;;;;;6.05;1.38;;;16.00;99.90;;;;;;5134530;27;20054;-73
2022/09/19 11:35:00;;;;;;;5.32;1.20;;;16.20;99.90;;;;;;5134453;28;20089;-74
2022/09/19 11:37:45;;;;;;;5.05;1.40;;;16.30;99.90;;;;;;5116003;28;20150;-74
2022/09/19 11:40:25;;;;;;;6.72;1.60;;;16.40;99.90;;;;;;5134170;28;20051;-73
2022/09/19 11:43:12;;;;;;;5.90;1.42;;;16.50;99.90;;;;;;5133660;27;20059;-73
2022/09/19 11:46:03;;;;;;;7.88;2.17;;;16.50;99.90;;;;;;5116100;28;20051;-77
2022/09/19 11:48:58;;;;;;;7.20;1.90;;;16.60;99.90;;;;;;5134369;28;20050;-73
2022/09/19 11:51:47;;;;;;;8.57;2.08;;;16.70;99.90;;;;;;5134324;28;20406;-72
2022/09/19 11:54:44;;;;;;;7.85;1.77;;;16.80;99.90;;;;;;5116054;28;20429;-73
2022/09/19 11:57:56;;;;;;;10.10;2.30;;;16.90;99.90;;;;;;5115465;28;20126;-74
2022/09/19 12:00:26;;;;;;;8.02;2.33;;;17.00;99.90;;;;;;5031020;28;20133;-73
2022/09/19 13:38:59;;;;;;;10.30;2.25;;;16.10;99.90;;;;;;5193771;23;19926;-78
2022/09/19 13:41:44;;;;;;;8.88;2.35;;;16.30;99.90;;;;;;4957107;28;20449;-82
2022/09/19 13:44:40;;;;;;;6.97;2.20;;;16.00;99.90;;;;;;4956058;29;20110;-80
2022/09/19 13:47:24;;;;;;;6.93;1.98;;;15.90;99.90;;;;;;4950376;29;20139;-81
2022/09/19 13:50:07;;;;;;;7.28;2.15;;;15.60;99.90;;;;;;4930469;29;20047;-82
2022/09/19 13:52:45;;;;;;;7.32;2.20;;;15.40;99.90;;;;;;4934478;29;20495;-81
2022/09/19 13:55:14;;;;;;;7.55;1.90;;;15.20;99.90;;;;;;4937070;29;20119;-80
2022/09/19 13:57:45;;;;;;;6.35;1.55;;;15.10;99.90;;;;;;4937363;29;20055;-81
2022/09/19 14:00:37;;;;;;;8.73;2.42;;;15.00;99.90;;;;;;4937689;29;20047;-81
2022/09/19 14:03:27;;;;;;;10.73;2.10;;;14.90;99.90;;;;;;4937378;29;20047;-80
2022/09/19 14:06:30;;;;;;;9.35;2.28;;;14.70;99.90;;;;;;4936850;29;20079;-77
2022/09/19 14:09:18;;;;;;;8.00;1.75;;;14.60;99.90;;;;;;4937628;29;20146;-77
2022/09/19 14:11:44;;;;;;;;;;;14.80;99.90;;;;;;4937348;29;20451;-76
2022/09/19 14:14:38;;;;;;;9.57;2.30;;;14.60;99.90;;;;;;4934849;29;19931;-77
2022/09/19 14:17:19;;;;;;;10.38;2.45;;;14.70;99.90;;;;;;4944150;29;20517;-77
2022/09/19 14:19:49;;;;;;;8.93;1.98;;;14.70;99.90;;;;;;4955634;28;20055;-77
2022/09/19 14:22:34;;;;;;;10.38;2.05;;;14.70;99.90;;;;;;4956204;28;20511;-76
2022/09/19 14:25:16;;;;;;;10.23;2.60;;;14.80;99.90;;;;;;4956173;28;20521;-76
2022/09/19 14:28:09;;;;;;;6.47;1.92;;;14.70;99.90;;;;;;4956370;28;20050;-76
2022/09/19 14:30:54;;;;;;;8.40;2.33;;;14.80;99.90;;;;;;4956434;28;20067;-76
2022/09/19 14:33:32;;;;;;;15.70;3.17;;;14.90;99.90;;;;;;4956257;28;20051;-76
2022/09/19 14:36:22;;;;;;;10.70;2.53;;;15.00;99.90;;;;;;4938979;29;20130;-76
2022/09/19 14:39:15;;;;;;;11.02;2.58;;;15.10;99.90;;;;;;4954383;28;20065;-77
2022/09/19 14:42:27;;;;;;;10.20;1.98;;;15.20;99.90;;;;;;4956168;29;20054;-77
2022/09/19 14:45:27;;;;;;;10.50;2.40;;;15.30;99.90;;;;;;4956056;28;20058;-77
2022/09/19 14:48:05;;;;;;;7.32;1.90;;;15.50;99.90;;;;;;4955749;28;20154;-76
2022/09/19 14:50:43;;;;;;;9.30;2.05;;;15.60;99.90;;;;;;4955985;28;20043;-77
2022/09/19 14:53:16;;;;;;;10.15;2.33;;;15.80;99.90;;;;;;4955595;28;20512;-73
2022/09/19 14:55:48;;;;;;;9.63;2.42;;;15.80;99.90;;;;;;4955969;29;20051;-77
2022/09/19 14:58:39;;;;;;;9.73;2.33;;;15.70;99.90;;;;;;4955627;28;20133;-76
2022/09/19 15:01:14;;;;;;;7.93;2.30;;;15.40;99.90;;;;;;4955443;29;20059;-77
2022/09/19 15:03:59;;;;;;;10.45;2.00;;;15.20;99.90;;;;;;4955761;28;20058;-76
2022/09/19 15:06:35;;;;;;;9.00;2.20;;;15.10;99.90;;;;;;4955660;28;20094;-77